GNV weather

Gainesville Regional Airport
Gainesville, Florida, United States

Public forecast

Using degrees Fahrenheit for public forecast. Weather courtesy of forecast.io.

METAR (pilot weather report)

Retrieved 2019/06/24 13:53 UTC (45 minutes ago):

KGNV 241353Z 00000KT 10SM CLR 29/24 A3007 RMK AO2 SLP179 T02890239

TAF (pilot weather forecast)

Retrieved 2019/06/24 12:22 UTC (2 hours ago):

TAF KGNV 241120Z 2412/2512 VRB03KT P6SM SCT250 FM241400 26008KT P6SM SCT040 SCT250 FM250100 25004KT P6SM SCT050 SCT250